Norwegian Getaway — C6ZJ4 — position and weather

sailwx.info

Track history (hours):
 
Tides and Currents Weather Stations Pressure Air Temp Water Temp Dewpoint Dewpoint Depression Visibility Wind Speed Wind Dir Waves Ship Positions

Norwegian Getaway

Last reported at 2019-Jul-22 14:30 UTC. Time now 2019-Jul-22 14:36 UTC.
Position N 55°43' E 012°37'.

Length 326 m; draft 8.7 m.

Type: Ship. MMSI: 311050900.

Date/timePositionNaut miles runAvg speedWind from/ knotsBaromVisibWave heightAir tempDewpointWater temp
2019-Jul-22 14:30N 55°43' E 012°37'0 0.0
2019-Jul-22 14:00N 55°43' E 012°37'0 0.0
2019-Jul-22 13:30N 55°43' E 012°37'0 0.0
2019-Jul-22 13:00N 55°43' E 012°37'0 0.0
2019-Jul-22 12:30N 55°43' E 012°37'0 0.0
2019-Jul-22 11:59N 55°43' E 012°37'0 0.0
2019-Jul-22 11:29N 55°43' E 012°37'0 0.0
2019-Jul-22 10:57N 55°43' E 012°37'0 0.0
2019-Jul-22 10:28N 55°43' E 012°37'0 0.0
2019-Jul-22 09:58N 55°43' E 012°37'0 0.0
2019-Jul-22 09:30N 55°43' E 012°37'0 0.0
2019-Jul-22 09:00N 55°43' E 012°37'0 0.0
2019-Jul-22 08:29N 55°43' E 012°37'0 0.0
2019-Jul-22 07:59N 55°43' E 012°37'0 0.0
2019-Jul-22 07:30N 55°43' E 012°37'0 0.0
2019-Jul-22 06:58N 55°43' E 012°37'0 0.0
2019-Jul-22 06:28N 55°43' E 012°37'0 0.0
2019-Jul-22 05:58N 55°43' E 012°37'0 0.0
2019-Jul-22 05:28N 55°43' E 012°37'0 0.0
2019-Jul-22 04:58N 55°43' E 012°37'0 0.0
2019-Jul-22 04:28N 55°43' E 012°37'0 0.0
2019-Jul-22 03:59N 55°43' E 012°37'0 0.4
2019-Jul-22 03:30N 55°43' E 012°38'3 5.8
2019-Jul-22 03:00N 55°45' E 012°41'611.5
2019-Jul-22 02:30N 55°51' E 012°41'714.9
2019-Jul-22 02:00N 55°58' E 012°40'714.5
2019-Jul-22 01:30N 56°05' E 012°35'6911.0
2019-Jul-21 19:12N 55°19' E 011°02'316.4
2019-Jul-21 19:00N 55°16' E 011°04'1315.6
2019-Jul-21 18:11N 55°03' E 011°02'316.9
2019-Jul-21 18:00N 55°01' E 011°02'815.8
2019-Jul-21 17:30N 54°54' E 010°54'917.3
2019-Jul-21 17:00N 54°45' E 010°53'815.9
2019-Jul-21 16:30N 54°39' E 011°01'917.8
2019-Jul-21 16:00N 54°35' E 011°15'918.0
2019-Jul-21 15:30N 54°31' E 011°29'917.8
2019-Jul-21 15:00N 54°27' E 011°43'1517.8
2019-Jul-21 14:11N 54°26' E 012°08'316.9
2019-Jul-21 14:00N 54°28' E 012°12'917.9
2019-Jul-21 13:29N 54°37' E 012°18'7017.7
2019-Jul-21 09:33N 55°07' E 014°07'317.9
2019-Jul-21 09:23N 55°08' E 014°11'818.5
2019-Jul-21 08:56N 55°15' E 014°20'1218.1
2019-Jul-21 08:15N 55°25' E 014°34'817.8
2019-Jul-21 07:47N 55°29' E 014°46'517.9
2019-Jul-21 07:29N 55°32' E 014°54'918.2
2019-Jul-21 07:00N 55°36' E 015°08'918.0
2019-Jul-21 06:30N 55°40' E 015°22'918.0
2019-Jul-21 06:00N 55°44' E 015°36'918.2
2019-Jul-21 05:30N 55°49' E 015°50'917.9
2019-Jul-21 05:00N 55°54' E 016°03'917.9
2019-Jul-21 04:30N 55°59' E 016°16'918.1
2019-Jul-21 04:00N 56°04' E 016°30'918.0
2019-Jul-21 03:30N 56°09' E 016°43'917.8
2019-Jul-21 03:00N 56°16' E 016°53'918.1
2019-Jul-21 02:30N 56°24' E 017°01'918.0
2019-Jul-21 02:00N 56°32' E 017°07'918.1
2019-Jul-21 01:30N 56°41' E 017°13'918.2
2019-Jul-21 01:00N 56°49' E 017°19'918.4
2019-Jul-21 00:30N 56°58' E 017°24'918.3
2019-Jul-21 00:00N 57°07' E 017°30'918.3
2019-Jul-20 23:30N 57°16' E 017°34'918.5
2019-Jul-20 23:00N 57°25' E 017°37'1018.3
2019-Jul-20 22:29N 57°34' E 017°40'917.9
2019-Jul-20 22:00N 57°43' E 017°41'918.0
2019-Jul-20 21:30N 57°51' E 017°43'918.1
2019-Jul-20 21:00N 58°00' E 017°45'918.1
2019-Jul-20 20:30N 58°09' E 017°47'917.9
2019-Jul-20 20:00N 58°18' E 017°49'917.7
2019-Jul-20 19:30N 58°27' E 017°51'917.5
2019-Jul-20 19:00N 58°36' E 017°52'815.4
2019-Jul-20 18:30N 58°44' E 017°53'714.1
2019-Jul-20 18:00N 58°50' E 017°59'510.0
2019-Jul-20 17:29N 58°55' E 017°59'1 1.6
2019-Jul-20 16:58N 58°55' E 017°58'0 0.0
2019-Jul-20 11:16N 58°55' E 017°58'0 0.0
2019-Jul-20 09:07N 58°55' E 017°58'0 0.0
2019-Jul-20 07:26N 58°55' E 017°58'0 0.0
2019-Jul-20 07:00N 58°55' E 017°58'0 0.0
2019-Jul-20 06:29N 58°55' E 017°58'0 0.0
2019-Jul-20 05:55N 58°55' E 017°58'0 0.0
2019-Jul-20 05:25N 58°55' E 017°58'0 0.0
2019-Jul-20 04:41N 58°55' E 017°58'0 0.0
2019-Jul-20 04:27N 58°55' E 017°58'0 0.0
2019-Jul-20 03:59N 58°55' E 017°58'0 0.0
2019-Jul-20 03:27N 58°55' E 017°58'1 1.2
2019-Jul-20 03:01N 58°55' E 017°59'5 9.3
2019-Jul-20 02:30N 58°51' E 018°03'713.7
2019-Jul-20 02:01N 58°45' E 018°10'612.3
2019-Jul-20 01:30N 58°45' E 018°22'917.9
2019-Jul-20 01:00N 58°48' E 018°39'918.2
2019-Jul-20 00:31N 58°50' E 018°55'918.5
2019-Jul-20 00:00N 58°54' E 019°12'918.7
2019-Jul-19 23:30N 58°56' E 019°29'918.9
2019-Jul-19 23:00N 58°59' E 019°47'1019.1
2019-Jul-19 22:30N 59°02' E 020°04'1919.4
2019-Jul-19 21:32N 59°09' E 020°39'119.3
2019-Jul-19 21:30N 59°09' E 020°40'1019.1
2019-Jul-19 21:00N 59°12' E 020°58'919.0
2019-Jul-19 20:30N 59°15' E 021°15'918.8
2019-Jul-19 20:00N 59°18' E 021°32'918.9
2019-Jul-19 19:30N 59°21' E 021°50'1018.8
2019-Jul-19 19:00N 59°25' E 022°07'919.1
2019-Jul-19 18:30N 59°28' E 022°24'1019.1
2019-Jul-19 18:00N 59°32' E 022°42'1019.2
2019-Jul-19 17:30N 59°34' E 023°00'1019.2
2019-Jul-19 17:00N 59°37' E 023°18'1019.0
2019-Jul-19 16:30N 59°40' E 023°36'1019.1
2019-Jul-19 16:00N 59°43' E 023°54'1019.2
2019-Jul-19 15:30N 59°46' E 024°13'918.6
2019-Jul-19 15:00N 59°50' E 024°29'918.9
2019-Jul-19 14:30N 59°56' E 024°44'816.4
2019-Jul-19 14:01N 60°01' E 024°55'712.9
2019-Jul-19 13:30N 60°08' E 024°54'1 1.9
2019-Jul-19 12:59N 60°09' E 024°55'0 0.0
2019-Jul-19 12:30N 60°09' E 024°55'0 0.0
2019-Jul-19 11:58N 60°09' E 024°55'0 0.0
2019-Jul-19 11:28N 60°09' E 024°55'0 0.0
2019-Jul-19 10:58N 60°09' E 024°55'0 0.0
2019-Jul-19 10:28N 60°09' E 024°55'0 0.0
2019-Jul-19 09:58N 60°09' E 024°55'0 0.0
2019-Jul-19 09:28N 60°09' E 024°55'0 0.0
2019-Jul-19 08:58N 60°09' E 024°55'0 0.0
2019-Jul-19 08:28N 60°09' E 024°55'0 0.0
2019-Jul-19 07:58N 60°09' E 024°55'0 0.0
2019-Jul-19 07:28N 60°09' E 024°55'0 0.0
2019-Jul-19 06:58N 60°09' E 024°55'0 0.0
2019-Jul-19 06:30N 60°09' E 024°55'0 0.0
2019-Jul-19 06:00N 60°09' E 024°55'0 0.0
2019-Jul-19 05:29N 60°09' E 024°55'0 0.0
2019-Jul-19 04:59N 60°09' E 024°55'0 0.0
2019-Jul-19 04:28N 60°09' E 024°55'0 0.0
2019-Jul-19 03:58N 60°09' E 024°55'0 0.0
2019-Jul-19 03:30N 60°09' E 024°55'2 4.0
2019-Jul-19 03:00N 60°07' E 024°54'713.9
2019-Jul-19 02:30N 59°60' E 024°56'611.7
2019-Jul-19 02:01N 59°55' E 025°01'918.0
2019-Jul-19 01:31N 59°55' E 025°19'1118.4
2019-Jul-19 00:56N 59°55' E 025°40'1718.6
2019-Jul-19 00:03N 59°58' E 026°12'117.2
2019-Jul-19 00:00N 59°59' E 026°14'918.9
2019-Jul-18 23:31N 60°01' E 026°31'1019.2
2019-Jul-18 23:01N 59°60' E 026°51'917.6
2019-Jul-18 22:30N 60°01' E 027°08'918.5
2019-Jul-18 22:00N 60°06' E 027°24'919.2
2019-Jul-18 21:30N 60°11' E 027°40'917.7
2019-Jul-18 21:00N 60°10' E 027°58'919.0
2019-Jul-18 20:31N 60°08' E 028°16'918.4
2019-Jul-18 20:00N 60°03' E 028°33'918.7
2019-Jul-18 19:30N 60°03' E 028°51'1018.8
2019-Jul-18 18:59N 60°02' E 029°10'915.8
2019-Jul-18 18:26N 60°01' E 029°28'512.0
2019-Jul-18 18:00N 60°00' E 029°38'611.4
2019-Jul-18 17:30N 59°58' E 029°48'611.5
2019-Jul-18 17:00N 59°56' E 029°59'510.2
2019-Jul-18 16:30N 59°57' E 030°08'1 2.6
2019-Jul-18 16:00N 59°57' E 030°11'0 0.0
2019-Jul-18 15:21N 59°57' E 030°11'0 0.0
2019-Jul-18 14:33N 59°57' E 030°11'0 0.0
2019-Jul-18 14:27N 59°57' E 030°11'0 0.0
2019-Jul-18 13:57N 59°57' E 030°11'0 0.0
2019-Jul-18 13:27N 59°57' E 030°11'0 0.0
2019-Jul-18 12:57N 59°57' E 030°11'0 0.0
2019-Jul-18 12:27N 59°57' E 030°11'0 0.0
2019-Jul-18 11:57N 59°57' E 030°11'0 0.0
2019-Jul-18 11:26N 59°57' E 030°11'0 0.0
2019-Jul-18 11:00N 59°57' E 030°11'0 0.0
2019-Jul-18 10:30N 59°57' E 030°11'0 0.0
2019-Jul-18 09:56N 59°57' E 030°11'0 0.0
2019-Jul-18 09:31N 59°57' E 030°11'0 0.0
2019-Jul-18 08:57N 59°57' E 030°11'0 0.0
2019-Jul-18 08:21N 59°57' E 030°11'0 0.0
2019-Jul-18 07:59N 59°57' E 030°11'0 0.0
2019-Jul-18 07:29N 59°57' E 030°11'0 0.0
2019-Jul-18 06:57N 59°57' E 030°11'0 0.0
2019-Jul-18 06:19N 59°57' E 030°11'0 0.0
2019-Jul-18 05:55N 59°57' E 030°11'0 0.0
2019-Jul-18 05:26N 59°57' E 030°11'0 0.0
2019-Jul-18 04:43N 59°57' E 030°11'0 0.0
2019-Jul-18 04:12N 59°57' E 030°11'0 0.0
2019-Jul-18 04:00N 59°57' E 030°11'0 0.0
2019-Jul-18 03:30N 59°57' E 030°11'0 0.0
2019-Jul-18 03:00N 59°57' E 030°11'0 0.0
2019-Jul-18 02:24N 59°57' E 030°11'0 0.0
2019-Jul-18 02:00N 59°57' E 030°11'0 0.0
2019-Jul-18 01:30N 59°57' E 030°11'0 0.0
2019-Jul-18 00:54N 59°57' E 030°11'0 0.0
2019-Jul-18 00:30N 59°57' E 030°11'0 0.0
2019-Jul-18 00:00N 59°57' E 030°11'0 0.0
2019-Jul-17 23:30N 59°57' E 030°11'0 0.0
2019-Jul-17 23:00N 59°57' E 030°11'0 0.0
2019-Jul-17 22:30N 59°57' E 030°11'0 0.0
2019-Jul-17 22:00N 59°57' E 030°11'0 0.0
2019-Jul-17 21:30N 59°57' E 030°11'0 0.0
2019-Jul-17 20:58N 59°57' E 030°11'0 0.0
2019-Jul-17 20:30N 59°57' E 030°11'0 0.0
2019-Jul-17 19:48N 59°57' E 030°11'0 0.0
2019-Jul-17 19:24N 59°57' E 030°11'0 0.0
2019-Jul-17 18:57N 59°57' E 030°11'0 0.0
2019-Jul-17 18:20N 59°57' E 030°11'0 0.0
2019-Jul-17 17:56N 59°57' E 030°11'0 0.0
2019-Jul-17 17:20N 59°57' E 030°11'0 0.0
2019-Jul-17 16:44N 59°57' E 030°11'0 0.0
2019-Jul-17 16:26N 59°57' E 030°11'0 0.0
2019-Jul-17 15:56N 59°57' E 030°11'0 0.0
2019-Jul-17 15:26N 59°57' E 030°11'0 0.0
2019-Jul-17 14:58N 59°57' E 030°11'0 0.0
2019-Jul-17 14:30N 59°57' E 030°11'0 0.0
2019-Jul-17 13:50N 59°57' E 030°11'0 0.0
2019-Jul-17 13:27N 59°57' E 030°11'0 0.0
2019-Jul-17 12:53N 59°57' E 030°11'0 0.0
2019-Jul-17 12:15N 59°57' E 030°11'0 0.0
2019-Jul-17 11:57N 59°57' E 030°11'0 0.0
2019-Jul-17 10:21N 59°57' E 030°11'0 0.0
2019-Jul-17 09:33N 59°57' E 030°11'0 0.0
2019-Jul-17 09:27N 59°57' E 030°11'0 0.0
2019-Jul-17 08:09N 59°57' E 030°11'0 0.0
2019-Jul-17 07:45N 59°57' E 030°11'0 0.0
2019-Jul-17 07:15N 59°57' E 030°11'0 0.0
2019-Jul-17 06:21N 59°57' E 030°11'0 0.0
2019-Jul-17 05:21N 59°57' E 030°11'0 0.0
2019-Jul-17 04:57N 59°57' E 030°11'0 0.0
2019-Jul-17 04:10N 59°57' E 030°11'0 0.1
2019-Jul-17 03:49N 59°57' E 030°11'0 0.3
2019-Jul-17 03:30N 59°57' E 030°11'3 5.2
2019-Jul-17 03:00N 59°57' E 030°06'5 9.3
2019-Jul-17 02:29N 59°56' E 029°56'510.7
2019-Jul-17 02:00N 59°58' E 029°47'5 9.3
2019-Jul-17 01:30N 60°00' E 029°38'810.8
2019-Jul-17 00:48N 60°02' E 029°24'515.8
2019-Jul-17 00:30N 60°02' E 029°14'816.4
2019-Jul-17 00:00N 60°02' E 028°58'816.3
2019-Jul-16 23:30N 60°02' E 028°42'816.3
2019-Jul-16 23:00N 60°03' E 028°26'714.4
2019-Jul-16 22:30N 60°07' E 028°14'613.0
2019-Jul-16 22:01N 60°09' E 028°02'816.0
2019-Jul-16 21:30N 60°11' E 027°46'816.0
2019-Jul-16 21:00N 60°07' E 027°32'815.7
2019-Jul-16 20:30N 60°02' E 027°19'815.5
2019-Jul-16 20:00N 59°58' E 027°05'815.5
2019-Jul-16 19:31N 59°59' E 026°50'815.6
2019-Jul-16 19:00N 59°59' E 026°34'816.3
2019-Jul-16 18:30N 59°56' E 026°19'1215.9
2019-Jul-16 17:46N 59°53' E 025°56'715.2
2019-Jul-16 17:20N 59°51' E 025°44'3 7.9
2019-Jul-16 17:00N 59°51' E 025°39'4 7.4
2019-Jul-16 16:26N 59°49' E 025°31'4 9.2
2019-Jul-16 16:00N 59°48' E 025°23'714.7
2019-Jul-16 15:30N 59°46' E 025°09'715.0
2019-Jul-16 15:00N 59°44' E 024°55'714.7
2019-Jul-16 14:30N 59°39' E 024°44'612.7
2019-Jul-16 14:00N 59°33' E 024°44'611.5
2019-Jul-16 13:31N 59°27' E 024°46'0 0.0
2019-Jul-16 13:00N 59°27' E 024°46'0 0.0
2019-Jul-16 12:30N 59°27' E 024°46'0 0.0
2019-Jul-16 12:00N 59°27' E 024°46'0 0.0
2019-Jul-16 11:30N 59°27' E 024°46'0 0.0
2019-Jul-16 11:00N 59°27' E 024°46'0 0.0
2019-Jul-16 10:31N 59°27' E 024°46'0 0.0
2019-Jul-16 10:00N 59°27' E 024°46'0 0.0
2019-Jul-16 09:27N 59°27' E 024°46'0 0.0
2019-Jul-16 09:00N 59°27' E 024°46'0 0.0
2019-Jul-16 08:30N 59°27' E 024°46'0 0.0
2019-Jul-16 08:00N 59°27' E 024°46'0 0.0
2019-Jul-16 07:30N 59°27' E 024°46'0 0.0
2019-Jul-16 07:00N 59°27' E 024°46'0 0.0
2019-Jul-16 06:30N 59°27' E 024°46'0 0.0
2019-Jul-16 05:59N 59°27' E 024°46'0 0.0
2019-Jul-16 05:29N 59°27' E 024°46'0 0.6
2019-Jul-16 05:00N 59°27' E 024°46'3 5.7
2019-Jul-16 04:30N 59°30' E 024°44'611.0
2019-Jul-16 04:01N 59°30' E 024°33'612.5
2019-Jul-16 03:31N 59°30' E 024°21'714.0
2019-Jul-16 03:00N 59°29' E 024°07'1216.8
2019-Jul-16 02:16N 59°27' E 023°43'516.9
2019-Jul-16 02:00N 59°26' E 023°34'917.2
2019-Jul-16 01:30N 59°25' E 023°17'917.5
2019-Jul-16 01:00N 59°24' E 023°01'24816.8
2019-Jul-15 10:17N 56°25' E 017°38'716.9
2019-Jul-15 09:51N 56°20' E 017°27'8417.9
2019-Jul-15 05:09N 55°35' E 015°20'418.2
2019-Jul-15 04:54N 55°33' E 015°13'718.3
2019-Jul-15 04:30N 55°30' E 015°01'918.3
2019-Jul-15 04:00N 55°26' E 014°47'1418.1
2019-Jul-15 03:15N 55°17' E 014°29'518.1
2019-Jul-15 02:58N 55°13' E 014°23'918.2
2019-Jul-15 02:28N 55°06' E 014°13'4817.8
2019-Jul-14 23:45N 54°48' E 012°55'417.6
2019-Jul-14 23:31N 54°47' E 012°48'917.2
2019-Jul-14 23:00N 54°43' E 012°35'917.4
2019-Jul-14 22:30N 54°38' E 012°22'816.0
2019-Jul-14 22:00N 54°31' E 012°15'1717.4
2019-Jul-14 21:01N 54°15' E 012°04'510.3
2019-Jul-14 20:29N 54°10' E 012°06'0 0.6
2019-Jul-14 19:54N 54°10' E 012°06'0 0.0
2019-Jul-14 19:28N 54°10' E 012°06'0 0.0
2019-Jul-14 18:58N 54°10' E 012°06'0 0.0
2019-Jul-14 18:16N 54°10' E 012°06'0 0.0
2019-Jul-14 17:58N 54°10' E 012°06'0 0.0
2019-Jul-14 17:28N 54°10' E 012°06'0 0.0
2019-Jul-14 16:58N 54°10' E 012°06'0 0.0
2019-Jul-14 16:28N 54°10' E 012°06'0 0.0
2019-Jul-14 15:55N 54°10' E 012°06'0 0.0
2019-Jul-14 15:28N 54°10' E 012°06'0 0.0
2019-Jul-14 14:58N 54°10' E 012°06'0 0.0
2019-Jul-14 14:28N 54°10' E 012°06'0 0.0
2019-Jul-14 13:58N 54°10' E 012°06'0 0.0
2019-Jul-14 13:28N 54°10' E 012°06'0 0.0
2019-Jul-14 12:55N 54°10' E 012°06'0 0.0
2019-Jul-14 06:19N 54°10' E 012°06'2 0.8
2019-Jul-14 04:28N 54°12' E 012°05'4 8.9
2019-Jul-14 04:00N 54°15' E 012°01'2115.0
2019-Jul-14 02:37N 54°28' E 011°33'216.5
2019-Jul-14 02:31N 54°29' E 011°30'815.9
2019-Jul-14 02:00N 54°33' E 011°18'815.9
2019-Jul-14 01:31N 54°37' E 011°06'815.8
2019-Jul-14 01:00N 54°41' E 010°54'714.9
2019-Jul-14 00:30N 54°48' E 010°51'815.8
2019-Jul-14 00:00N 54°56' E 010°54'815.4
2019-Jul-13 23:31N 55°02' E 011°02'917.4
2019-Jul-13 23:00N 55°11' E 011°04'5617.4
2019-Jul-13 19:46N 56°07' E 011°10'719.8
2019-Jul-13 19:25N 56°08' E 011°22'3519.2
2019-Jul-13 17:37N 56°11' E 012°24'219.4
2019-Jul-13 17:31N 56°10' E 012°27'1019.4
2019-Jul-13 17:00N 56°03' E 012°40'917.3
2019-Jul-13 16:31N 55°55' E 012°44'816.3
2019-Jul-13 16:01N 55°47' E 012°42'5 9.4
2019-Jul-13 15:30N 55°43' E 012°38'0 0.5
2019-Jul-13 14:59N 55°43' E 012°37'0 0.0
2019-Jul-13 14:29N 55°43' E 012°37'0 0.0
2019-Jul-13 13:59N 55°43' E 012°37'0 0.0
2019-Jul-13 13:25N 55°43' E 012°37'0 0.0
2019-Jul-13 12:58N 55°43' E 012°37'0 0.0
2019-Jul-13 12:28N 55°43' E 012°37'0 0.0
2019-Jul-13 11:58N 55°43' E 012°37'0 0.0
2019-Jul-13 11:28N 55°43' E 012°37'0 0.0
2019-Jul-13 10:58N 55°43' E 012°37'0 0.0
2019-Jul-13 10:28N 55°43' E 012°37'0 0.0
2019-Jul-13 09:58N 55°43' E 012°37'0 0.0
2019-Jul-13 09:29N 55°43' E 012°37'0 0.0
2019-Jul-13 08:59N 55°43' E 012°37'0 0.0
2019-Jul-13 08:29N 55°43' E 012°37'0 0.0
2019-Jul-13 07:59N 55°43' E 012°37'0 0.0
2019-Jul-13 07:29N 55°43' E 012°37'0 0.0
2019-Jul-13 07:00N 55°43' E 012°37'0 0.0
2019-Jul-13 06:30N 55°43' E 012°37'0 0.0
2019-Jul-13 06:00N 55°43' E 012°37'0 0.0
2019-Jul-13 05:30N 55°43' E 012°37'0 0.0
2019-Jul-13 05:00N 55°43' E 012°37'0 0.0
2019-Jul-13 04:28N 55°43' E 012°37'0 0.0
2019-Jul-13 03:58N 55°43' E 012°37'0 0.0
2019-Jul-13 03:28N 55°43' E 012°37'0 0.9
2019-Jul-13 03:00N 55°43' E 012°38'3 6.8
2019-Jul-13 02:30N 55°46' E 012°41'612.2
2019-Jul-13 02:00N 55°52' E 012°40'714.0
2019-Jul-13 01:30N 55°59' E 012°41'713.8
2019-Jul-13 01:00N 56°05' E 012°35'1013.9
2019-Jul-13 00:15N 56°11' E 012°20'614.2
2019-Jul-12 23:50N 56°12' E 012°09'6710.7
2019-Jul-12 17:31N 55°15' E 011°05'014.6
2019-Jul-12 17:30N 55°15' E 011°06'1114.5
2019-Jul-12 16:43N 55°03' E 011°02'313.8
2019-Jul-12 16:30N 55°00' E 011°02'714.3
2019-Jul-12 16:00N 54°55' E 010°54'714.6
2019-Jul-12 15:30N 54°48' E 010°52'612.4
2019-Jul-12 15:00N 54°42' E 010°56'713.6
2019-Jul-12 14:31N 54°38' E 011°06'  
Track history (hours):
 
Tides and Currents Weather Stations Pressure Air Temp Water Temp Dewpoint Dewpoint Depression Visibility Wind Speed Wind Dir Waves Ship Positions

Norwegian Getaway

Last reported at 2019-Jul-22 14:30 UTC. Time now 2019-Jul-22 14:36 UTC.
Position N 55°43' E 012°37'.

Length 326 m; draft 8.7 m.

Type: Ship. MMSI: 311050900.

Date/timePositionNaut miles runAvg speedWind from/ knotsBaromVisibWave heightAir tempDewpointWater temp
2019-Jul-22 14:30N 55°43' E 012°37'0 0.0
2019-Jul-22 14:00N 55°43' E 012°37'0 0.0
2019-Jul-22 13:30N 55°43' E 012°37'0 0.0
2019-Jul-22 13:00N 55°43' E 012°37'0 0.0
2019-Jul-22 12:30N 55°43' E 012°37'0 0.0
2019-Jul-22 11:59N 55°43' E 012°37'0 0.0
2019-Jul-22 11:29N 55°43' E 012°37'0 0.0
2019-Jul-22 10:57N 55°43' E 012°37'0 0.0
2019-Jul-22 10:28N 55°43' E 012°37'0 0.0
2019-Jul-22 09:58N 55°43' E 012°37'0 0.0
2019-Jul-22 09:30N 55°43' E 012°37'0 0.0
2019-Jul-22 09:00N 55°43' E 012°37'0 0.0
2019-Jul-22 08:29N 55°43' E 012°37'0 0.0
2019-Jul-22 07:59N 55°43' E 012°37'0 0.0
2019-Jul-22 07:30N 55°43' E 012°37'0 0.0
2019-Jul-22 06:58N 55°43' E 012°37'0 0.0
2019-Jul-22 06:28N 55°43' E 012°37'0 0.0
2019-Jul-22 05:58N 55°43' E 012°37'0 0.0
2019-Jul-22 05:28N 55°43' E 012°37'0 0.0
2019-Jul-22 04:58N 55°43' E 012°37'0 0.0
2019-Jul-22 04:28N 55°43' E 012°37'0 0.0
2019-Jul-22 03:59N 55°43' E 012°37'0 0.4
2019-Jul-22 03:30N 55°43' E 012°38'3 5.8
2019-Jul-22 03:00N 55°45' E 012°41'611.5
2019-Jul-22 02:30N 55°51' E 012°41'714.9
2019-Jul-22 02:00N 55°58' E 012°40'714.5
2019-Jul-22 01:30N 56°05' E 012°35'6911.0
2019-Jul-21 19:12N 55°19' E 011°02'316.4
2019-Jul-21 19:00N 55°16' E 011°04'1315.6
2019-Jul-21 18:11N 55°03' E 011°02'316.9
2019-Jul-21 18:00N 55°01' E 011°02'815.8
2019-Jul-21 17:30N 54°54' E 010°54'917.3
2019-Jul-21 17:00N 54°45' E 010°53'815.9
2019-Jul-21 16:30N 54°39' E 011°01'917.8
2019-Jul-21 16:00N 54°35' E 011°15'918.0
2019-Jul-21 15:30N 54°31' E 011°29'917.8
2019-Jul-21 15:00N 54°27' E 011°43'1517.8
2019-Jul-21 14:11N 54°26' E 012°08'316.9
2019-Jul-21 14:00N 54°28' E 012°12'917.9
2019-Jul-21 13:29N 54°37' E 012°18'7017.7
2019-Jul-21 09:33N 55°07' E 014°07'317.9
2019-Jul-21 09:23N 55°08' E 014°11'818.5
2019-Jul-21 08:56N 55°15' E 014°20'1218.1
2019-Jul-21 08:15N 55°25' E 014°34'817.8
2019-Jul-21 07:47N 55°29' E 014°46'517.9
2019-Jul-21 07:29N 55°32' E 014°54'918.2
2019-Jul-21 07:00N 55°36' E 015°08'918.0
2019-Jul-21 06:30N 55°40' E 015°22'918.0
2019-Jul-21 06:00N 55°44' E 015°36'918.2
2019-Jul-21 05:30N 55°49' E 015°50'917.9
2019-Jul-21 05:00N 55°54' E 016°03'917.9
2019-Jul-21 04:30N 55°59' E 016°16'918.1
2019-Jul-21 04:00N 56°04' E 016°30'918.0
2019-Jul-21 03:30N 56°09' E 016°43'917.8
2019-Jul-21 03:00N 56°16' E 016°53'918.1
2019-Jul-21 02:30N 56°24' E 017°01'918.0
2019-Jul-21 02:00N 56°32' E 017°07'918.1
2019-Jul-21 01:30N 56°41' E 017°13'918.2
2019-Jul-21 01:00N 56°49' E 017°19'918.4
2019-Jul-21 00:30N 56°58' E 017°24'918.3
2019-Jul-21 00:00N 57°07' E 017°30'918.3
2019-Jul-20 23:30N 57°16' E 017°34'918.5
2019-Jul-20 23:00N 57°25' E 017°37'1018.3
2019-Jul-20 22:29N 57°34' E 017°40'917.9
2019-Jul-20 22:00N 57°43' E 017°41'918.0
2019-Jul-20 21:30N 57°51' E 017°43'918.1
2019-Jul-20 21:00N 58°00' E 017°45'918.1
2019-Jul-20 20:30N 58°09' E 017°47'917.9
2019-Jul-20 20:00N 58°18' E 017°49'917.7
2019-Jul-20 19:30N 58°27' E 017°51'917.5
2019-Jul-20 19:00N 58°36' E 017°52'815.4
2019-Jul-20 18:30N 58°44' E 017°53'714.1
2019-Jul-20 18:00N 58°50' E 017°59'510.0
2019-Jul-20 17:29N 58°55' E 017°59'1 1.6
2019-Jul-20 16:58N 58°55' E 017°58'0 0.0
2019-Jul-20 11:16N 58°55' E 017°58'0 0.0
2019-Jul-20 09:07N 58°55' E 017°58'0 0.0
2019-Jul-20 07:26N 58°55' E 017°58'0 0.0
2019-Jul-20 07:00N 58°55' E 017°58'0 0.0
2019-Jul-20 06:29N 58°55' E 017°58'0 0.0
2019-Jul-20 05:55N 58°55' E 017°58'0 0.0
2019-Jul-20 05:25N 58°55' E 017°58'0 0.0
2019-Jul-20 04:41N 58°55' E 017°58'0 0.0
2019-Jul-20 04:27N 58°55' E 017°58'0 0.0
2019-Jul-20 03:59N 58°55' E 017°58'0 0.0
2019-Jul-20 03:27N 58°55' E 017°58'1 1.2
2019-Jul-20 03:01N 58°55' E 017°59'5 9.3
2019-Jul-20 02:30N 58°51' E 018°03'713.7
2019-Jul-20 02:01N 58°45' E 018°10'612.3
2019-Jul-20 01:30N 58°45' E 018°22'917.9
2019-Jul-20 01:00N 58°48' E 018°39'918.2
2019-Jul-20 00:31N 58°50' E 018°55'918.5
2019-Jul-20 00:00N 58°54' E 019°12'918.7
2019-Jul-19 23:30N 58°56' E 019°29'918.9
2019-Jul-19 23:00N 58°59' E 019°47'1019.1
2019-Jul-19 22:30N 59°02' E 020°04'1919.4
2019-Jul-19 21:32N 59°09' E 020°39'119.3
2019-Jul-19 21:30N 59°09' E 020°40'1019.1
2019-Jul-19 21:00N 59°12' E 020°58'919.0
2019-Jul-19 20:30N 59°15' E 021°15'918.8
2019-Jul-19 20:00N 59°18' E 021°32'918.9
2019-Jul-19 19:30N 59°21' E 021°50'1018.8
2019-Jul-19 19:00N 59°25' E 022°07'919.1
2019-Jul-19 18:30N 59°28' E 022°24'1019.1
2019-Jul-19 18:00N 59°32' E 022°42'1019.2
2019-Jul-19 17:30N 59°34' E 023°00'1019.2
2019-Jul-19 17:00N 59°37' E 023°18'1019.0
2019-Jul-19 16:30N 59°40' E 023°36'1019.1
2019-Jul-19 16:00N 59°43' E 023°54'1019.2
2019-Jul-19 15:30N 59°46' E 024°13'918.6
2019-Jul-19 15:00N 59°50' E 024°29'918.9
2019-Jul-19 14:30N 59°56' E 024°44'816.4
2019-Jul-19 14:01N 60°01' E 024°55'712.9
2019-Jul-19 13:30N 60°08' E 024°54'1 1.9
2019-Jul-19 12:59N 60°09' E 024°55'0 0.0
2019-Jul-19 12:30N 60°09' E 024°55'0 0.0
2019-Jul-19 11:58N 60°09' E 024°55'0 0.0
2019-Jul-19 11:28N 60°09' E 024°55'0 0.0
2019-Jul-19 10:58N 60°09' E 024°55'0 0.0
2019-Jul-19 10:28N 60°09' E 024°55'0 0.0
2019-Jul-19 09:58N 60°09' E 024°55'0 0.0
2019-Jul-19 09:28N 60°09' E 024°55'0 0.0
2019-Jul-19 08:58N 60°09' E 024°55'0 0.0
2019-Jul-19 08:28N 60°09' E 024°55'0 0.0
2019-Jul-19 07:58N 60°09' E 024°55'0 0.0
2019-Jul-19 07:28N 60°09' E 024°55'0 0.0
2019-Jul-19 06:58N 60°09' E 024°55'0 0.0
2019-Jul-19 06:30N 60°09' E 024°55'0 0.0
2019-Jul-19 06:00N 60°09' E 024°55'0 0.0
2019-Jul-19 05:29N 60°09' E 024°55'0 0.0
2019-Jul-19 04:59N 60°09' E 024°55'0 0.0
2019-Jul-19 04:28N 60°09' E 024°55'0 0.0
2019-Jul-19 03:58N 60°09' E 024°55'0 0.0
2019-Jul-19 03:30N 60°09' E 024°55'2 4.0
2019-Jul-19 03:00N 60°07' E 024°54'713.9
2019-Jul-19 02:30N 59°60' E 024°56'611.7
2019-Jul-19 02:01N 59°55' E 025°01'918.0
2019-Jul-19 01:31N 59°55' E 025°19'1118.4
2019-Jul-19 00:56N 59°55' E 025°40'1718.6
2019-Jul-19 00:03N 59°58' E 026°12'117.2
2019-Jul-19 00:00N 59°59' E 026°14'918.9
2019-Jul-18 23:31N 60°01' E 026°31'1019.2
2019-Jul-18 23:01N 59°60' E 026°51'917.6
2019-Jul-18 22:30N 60°01' E 027°08'918.5
2019-Jul-18 22:00N 60°06' E 027°24'919.2
2019-Jul-18 21:30N 60°11' E 027°40'917.7
2019-Jul-18 21:00N 60°10' E 027°58'919.0
2019-Jul-18 20:31N 60°08' E 028°16'918.4
2019-Jul-18 20:00N 60°03' E 028°33'918.7
2019-Jul-18 19:30N 60°03' E 028°51'1018.8
2019-Jul-18 18:59N 60°02' E 029°10'915.8
2019-Jul-18 18:26N 60°01' E 029°28'512.0
2019-Jul-18 18:00N 60°00' E 029°38'611.4
2019-Jul-18 17:30N 59°58' E 029°48'611.5
2019-Jul-18 17:00N 59°56' E 029°59'510.2
2019-Jul-18 16:30N 59°57' E 030°08'1 2.6
2019-Jul-18 16:00N 59°57' E 030°11'0 0.0
2019-Jul-18 15:21N 59°57' E 030°11'0 0.0
2019-Jul-18 14:33N 59°57' E 030°11'0 0.0
2019-Jul-18 14:27N 59°57' E 030°11'0 0.0
2019-Jul-18 13:57N 59°57' E 030°11'0 0.0
2019-Jul-18 13:27N 59°57' E 030°11'0 0.0
2019-Jul-18 12:57N 59°57' E 030°11'0 0.0
2019-Jul-18 12:27N 59°57' E 030°11'0 0.0
2019-Jul-18 11:57N 59°57' E 030°11'0 0.0
2019-Jul-18 11:26N 59°57' E 030°11'0 0.0
2019-Jul-18 11:00N 59°57' E 030°11'0 0.0
2019-Jul-18 10:30N 59°57' E 030°11'0 0.0
2019-Jul-18 09:56N 59°57' E 030°11'0 0.0
2019-Jul-18 09:31N 59°57' E 030°11'0 0.0
2019-Jul-18 08:57N 59°57' E 030°11'0 0.0
2019-Jul-18 08:21N 59°57' E 030°11'0 0.0
2019-Jul-18 07:59N 59°57' E 030°11'0 0.0
2019-Jul-18 07:29N 59°57' E 030°11'0 0.0
2019-Jul-18 06:57N 59°57' E 030°11'0 0.0
2019-Jul-18 06:19N 59°57' E 030°11'0 0.0
2019-Jul-18 05:55N 59°57' E 030°11'0 0.0
2019-Jul-18 05:26N 59°57' E 030°11'0 0.0
2019-Jul-18 04:43N 59°57' E 030°11'0 0.0
2019-Jul-18 04:12N 59°57' E 030°11'0 0.0
2019-Jul-18 04:00N 59°57' E 030°11'0 0.0
2019-Jul-18 03:30N 59°57' E 030°11'0 0.0
2019-Jul-18 03:00N 59°57' E 030°11'0 0.0
2019-Jul-18 02:24N 59°57' E 030°11'0 0.0
2019-Jul-18 02:00N 59°57' E 030°11'0 0.0
2019-Jul-18 01:30N 59°57' E 030°11'0 0.0
2019-Jul-18 00:54N 59°57' E 030°11'0 0.0
2019-Jul-18 00:30N 59°57' E 030°11'0 0.0
2019-Jul-18 00:00N 59°57' E 030°11'0 0.0
2019-Jul-17 23:30N 59°57' E 030°11'0 0.0
2019-Jul-17 23:00N 59°57' E 030°11'0 0.0
2019-Jul-17 22:30N 59°57' E 030°11'0 0.0
2019-Jul-17 22:00N 59°57' E 030°11'0 0.0
2019-Jul-17 21:30N 59°57' E 030°11'0 0.0
2019-Jul-17 20:58N 59°57' E 030°11'0 0.0
2019-Jul-17 20:30N 59°57' E 030°11'0 0.0
2019-Jul-17 19:48N 59°57' E 030°11'0 0.0
2019-Jul-17 19:24N 59°57' E 030°11'0 0.0
2019-Jul-17 18:57N 59°57' E 030°11'0 0.0
2019-Jul-17 18:20N 59°57' E 030°11'0 0.0
2019-Jul-17 17:56N 59°57' E 030°11'0 0.0
2019-Jul-17 17:20N 59°57' E 030°11'0 0.0
2019-Jul-17 16:44N 59°57' E 030°11'0 0.0
2019-Jul-17 16:26N 59°57' E 030°11'0 0.0
2019-Jul-17 15:56N 59°57' E 030°11'0 0.0
2019-Jul-17 15:26N 59°57' E 030°11'0 0.0
2019-Jul-17 14:58N 59°57' E 030°11'0 0.0
2019-Jul-17 14:30N 59°57' E 030°11'0 0.0
2019-Jul-17 13:50N 59°57' E 030°11'0 0.0
2019-Jul-17 13:27N 59°57' E 030°11'0 0.0
2019-Jul-17 12:53N 59°57' E 030°11'0 0.0
2019-Jul-17 12:15N 59°57' E 030°11'0 0.0
2019-Jul-17 11:57N 59°57' E 030°11'0 0.0
2019-Jul-17 10:21N 59°57' E 030°11'0 0.0
2019-Jul-17 09:33N 59°57' E 030°11'0 0.0
2019-Jul-17 09:27N 59°57' E 030°11'0 0.0
2019-Jul-17 08:09N 59°57' E 030°11'0 0.0
2019-Jul-17 07:45N 59°57' E 030°11'0 0.0
2019-Jul-17 07:15N 59°57' E 030°11'0 0.0
2019-Jul-17 06:21N 59°57' E 030°11'0 0.0
2019-Jul-17 05:21N 59°57' E 030°11'0 0.0
2019-Jul-17 04:57N 59°57' E 030°11'0 0.0
2019-Jul-17 04:10N 59°57' E 030°11'0 0.1
2019-Jul-17 03:49N 59°57' E 030°11'0 0.3
2019-Jul-17 03:30N 59°57' E 030°11'3 5.2
2019-Jul-17 03:00N 59°57' E 030°06'5 9.3
2019-Jul-17 02:29N 59°56' E 029°56'510.7
2019-Jul-17 02:00N 59°58' E 029°47'5 9.3
2019-Jul-17 01:30N 60°00' E 029°38'810.8
2019-Jul-17 00:48N 60°02' E 029°24'515.8
2019-Jul-17 00:30N 60°02' E 029°14'816.4
2019-Jul-17 00:00N 60°02' E 028°58'816.3
2019-Jul-16 23:30N 60°02' E 028°42'816.3
2019-Jul-16 23:00N 60°03' E 028°26'714.4
2019-Jul-16 22:30N 60°07' E 028°14'613.0
2019-Jul-16 22:01N 60°09' E 028°02'816.0
2019-Jul-16 21:30N 60°11' E 027°46'816.0
2019-Jul-16 21:00N 60°07' E 027°32'815.7
2019-Jul-16 20:30N 60°02' E 027°19'815.5
2019-Jul-16 20:00N 59°58' E 027°05'815.5
2019-Jul-16 19:31N 59°59' E 026°50'815.6
2019-Jul-16 19:00N 59°59' E 026°34'816.3
2019-Jul-16 18:30N 59°56' E 026°19'1215.9
2019-Jul-16 17:46N 59°53' E 025°56'715.2
2019-Jul-16 17:20N 59°51' E 025°44'3 7.9
2019-Jul-16 17:00N 59°51' E 025°39'4 7.4
2019-Jul-16 16:26N 59°49' E 025°31'4 9.2
2019-Jul-16 16:00N 59°48' E 025°23'714.7
2019-Jul-16 15:30N 59°46' E 025°09'715.0
2019-Jul-16 15:00N 59°44' E 024°55'714.7
2019-Jul-16 14:30N 59°39' E 024°44'612.7
2019-Jul-16 14:00N 59°33' E 024°44'611.5
2019-Jul-16 13:31N 59°27' E 024°46'0 0.0
2019-Jul-16 13:00N 59°27' E 024°46'0 0.0
2019-Jul-16 12:30N 59°27' E 024°46'0 0.0
2019-Jul-16 12:00N 59°27' E 024°46'0 0.0
2019-Jul-16 11:30N 59°27' E 024°46'0 0.0
2019-Jul-16 11:00N 59°27' E 024°46'0 0.0
2019-Jul-16 10:31N 59°27' E 024°46'0 0.0
2019-Jul-16 10:00N 59°27' E 024°46'0 0.0
2019-Jul-16 09:27N 59°27' E 024°46'0 0.0
2019-Jul-16 09:00N 59°27' E 024°46'0 0.0
2019-Jul-16 08:30N 59°27' E 024°46'0 0.0
2019-Jul-16 08:00N 59°27' E 024°46'0 0.0
2019-Jul-16 07:30N 59°27' E 024°46'0 0.0
2019-Jul-16 07:00N 59°27' E 024°46'0 0.0
2019-Jul-16 06:30N 59°27' E 024°46'0 0.0
2019-Jul-16 05:59N 59°27' E 024°46'0 0.0
2019-Jul-16 05:29N 59°27' E 024°46'0 0.6
2019-Jul-16 05:00N 59°27' E 024°46'3 5.7
2019-Jul-16 04:30N 59°30' E 024°44'611.0
2019-Jul-16 04:01N 59°30' E 024°33'612.5
2019-Jul-16 03:31N 59°30' E 024°21'714.0
2019-Jul-16 03:00N 59°29' E 024°07'1216.8
2019-Jul-16 02:16N 59°27' E 023°43'516.9
2019-Jul-16 02:00N 59°26' E 023°34'917.2
2019-Jul-16 01:30N 59°25' E 023°17'917.5
2019-Jul-16 01:00N 59°24' E 023°01'24816.8
2019-Jul-15 10:17N 56°25' E 017°38'716.9
2019-Jul-15 09:51N 56°20' E 017°27'8417.9
2019-Jul-15 05:09N 55°35' E 015°20'418.2
2019-Jul-15 04:54N 55°33' E 015°13'718.3
2019-Jul-15 04:30N 55°30' E 015°01'918.3
2019-Jul-15 04:00N 55°26' E 014°47'1418.1
2019-Jul-15 03:15N 55°17' E 014°29'518.1
2019-Jul-15 02:58N 55°13' E 014°23'918.2
2019-Jul-15 02:28N 55°06' E 014°13'4817.8
2019-Jul-14 23:45N 54°48' E 012°55'417.6
2019-Jul-14 23:31N 54°47' E 012°48'917.2
2019-Jul-14 23:00N 54°43' E 012°35'917.4
2019-Jul-14 22:30N 54°38' E 012°22'816.0
2019-Jul-14 22:00N 54°31' E 012°15'1717.4
2019-Jul-14 21:01N 54°15' E 012°04'510.3
2019-Jul-14 20:29N 54°10' E 012°06'0 0.6
2019-Jul-14 19:54N 54°10' E 012°06'0 0.0
2019-Jul-14 19:28N 54°10' E 012°06'0 0.0
2019-Jul-14 18:58N 54°10' E 012°06'0 0.0
2019-Jul-14 18:16N 54°10' E 012°06'0 0.0
2019-Jul-14 17:58N 54°10' E 012°06'0 0.0
2019-Jul-14 17:28N 54°10' E 012°06'0 0.0
2019-Jul-14 16:58N 54°10' E 012°06'0 0.0
2019-Jul-14 16:28N 54°10' E 012°06'0 0.0
2019-Jul-14 15:55N 54°10' E 012°06'0 0.0
2019-Jul-14 15:28N 54°10' E 012°06'0 0.0
2019-Jul-14 14:58N 54°10' E 012°06'0 0.0
2019-Jul-14 14:28N 54°10' E 012°06'0 0.0
2019-Jul-14 13:58N 54°10' E 012°06'0 0.0
2019-Jul-14 13:28N 54°10' E 012°06'0 0.0
2019-Jul-14 12:55N 54°10' E 012°06'0 0.0
2019-Jul-14 06:19N 54°10' E 012°06'2 0.8
2019-Jul-14 04:28N 54°12' E 012°05'4 8.9
2019-Jul-14 04:00N 54°15' E 012°01'2115.0
2019-Jul-14 02:37N 54°28' E 011°33'216.5
2019-Jul-14 02:31N 54°29' E 011°30'815.9
2019-Jul-14 02:00N 54°33' E 011°18'815.9
2019-Jul-14 01:31N 54°37' E 011°06'815.8
2019-Jul-14 01:00N 54°41' E 010°54'714.9
2019-Jul-14 00:30N 54°48' E 010°51'815.8
2019-Jul-14 00:00N 54°56' E 010°54'815.4
2019-Jul-13 23:31N 55°02' E 011°02'917.4
2019-Jul-13 23:00N 55°11' E 011°04'5617.4
2019-Jul-13 19:46N 56°07' E 011°10'719.8
2019-Jul-13 19:25N 56°08' E 011°22'3519.2
2019-Jul-13 17:37N 56°11' E 012°24'219.4
2019-Jul-13 17:31N 56°10' E 012°27'1019.4
2019-Jul-13 17:00N 56°03' E 012°40'917.3
2019-Jul-13 16:31N 55°55' E 012°44'816.3
2019-Jul-13 16:01N 55°47' E 012°42'5 9.4
2019-Jul-13 15:30N 55°43' E 012°38'0 0.5
2019-Jul-13 14:59N 55°43' E 012°37'0 0.0
2019-Jul-13 14:29N 55°43' E 012°37'0 0.0
2019-Jul-13 13:59N 55°43' E 012°37'0 0.0
2019-Jul-13 13:25N 55°43' E 012°37'0 0.0
2019-Jul-13 12:58N 55°43' E 012°37'0 0.0
2019-Jul-13 12:28N 55°43' E 012°37'0 0.0
2019-Jul-13 11:58N 55°43' E 012°37'0 0.0
2019-Jul-13 11:28N 55°43' E 012°37'0 0.0
2019-Jul-13 10:58N 55°43' E 012°37'0 0.0
2019-Jul-13 10:28N 55°43' E 012°37'0 0.0
2019-Jul-13 09:58N 55°43' E 012°37'0 0.0
2019-Jul-13 09:29N 55°43' E 012°37'0 0.0
2019-Jul-13 08:59N 55°43' E 012°37'0 0.0
2019-Jul-13 08:29N 55°43' E 012°37'0 0.0
2019-Jul-13 07:59N 55°43' E 012°37'0 0.0
2019-Jul-13 07:29N 55°43' E 012°37'0 0.0
2019-Jul-13 07:00N 55°43' E 012°37'0 0.0
2019-Jul-13 06:30N 55°43' E 012°37'0 0.0
2019-Jul-13 06:00N 55°43' E 012°37'0 0.0
2019-Jul-13 05:30N 55°43' E 012°37'0 0.0
2019-Jul-13 05:00N 55°43' E 012°37'0 0.0
2019-Jul-13 04:28N 55°43' E 012°37'0 0.0
2019-Jul-13 03:58N 55°43' E 012°37'0 0.0
2019-Jul-13 03:28N 55°43' E 012°37'0 0.9
2019-Jul-13 03:00N 55°43' E 012°38'3 6.8
2019-Jul-13 02:30N 55°46' E 012°41'612.2
2019-Jul-13 02:00N 55°52' E 012°40'714.0
2019-Jul-13 01:30N 55°59' E 012°41'713.8
2019-Jul-13 01:00N 56°05' E 012°35'1013.9
2019-Jul-13 00:15N 56°11' E 012°20'614.2
2019-Jul-12 23:50N 56°12' E 012°09'6710.7
2019-Jul-12 17:31N 55°15' E 011°05'014.6
2019-Jul-12 17:30N 55°15' E 011°06'1114.5
2019-Jul-12 16:43N 55°03' E 011°02'313.8
2019-Jul-12 16:30N 55°00' E 011°02'714.3
2019-Jul-12 16:00N 54°55' E 010°54'714.6
2019-Jul-12 15:30N 54°48' E 010°52'612.4
2019-Jul-12 15:00N 54°42' E 010°56'713.6
2019-Jul-12 14:31N 54°38' E 011°06'  

Dump ship's entire track history